ADDS METAR Data INFO
IDs: Format: Raw Decoded Include TAF

Data at: 1144 UTC 23 Jun 2018

PFYU 231056Z AUTO 24007KT 10SM CLR 13/10 A2992 RMK AO2 SLP155 T01280100
PFYU 230956Z AUTO VRB05KT 10SM CLR 13/10 A2991 RMK AO2 SLP152 T01280100
PFYU 230856Z AUTO 23004KT 10SM CLR 13/11 A2990 RMK AO2 SLP148 T01330106 401940133 51009
PFYU 230756Z AUTO VRB05KT 10SM CLR 14/11 A2990 RMK AO2 SLP146 T01390106
PFYU 230656Z AUTO 23006KT 10SM OVC075 15/11 A2988 RMK AO2 SLP141 T01500106
PFYU 230556Z AUTO 24008G19KT 10SM FEW023 OVC045 16/11 A2987 RMK AO2 SLP138 60000 T01560111 10178 20156 53008
PFYU 230456Z AUTO VRB06KT 10SM FEW033 SCT050 17/11 A2986 RMK AO2 RAB07E17 SLP132 P0000 T01670106
PFYU 230356Z AUTO 23008KT 10SM BKN035 OVC055 17/11 A2985 RMK AO2 SLP130 T01720106
PFYU 230256Z 24008KT 10SM FEW030 SCT037 BKN048 17/11 A2985 RMK AO2 SLP129 T01720106 51009
PFYU 230205Z 24006G14KT 10SM OVC030 17/11 A2985 RMK AO2
PFYU 230156Z 23007KT 10SM BKN028 OVC035 17/11 A2985 RMK AO2 SLP129 T01720111
PFYU 230144Z VRB06G15KT 10SM BKN028 OVC035 17/11 A2985 RMK AO2
PFYU 230056Z 24010G17KT 10SM FEW030 BKN043 OVC075 17/11 A2983 RMK AO2 SLP124 T01720111
PFYU 222356Z 24013G17KT 10SM FEW028 SCT050 BKN070 18/11 A2982 RMK AO2 SLP119 VIRGA ALQDS 60000 T01780111 10178 20144 51009
PFYU 222256Z 25012G19KT 10SM FEW024 SCT036 BKN075 17/12 A2982 RMK AO2 SLP117 VIRGA ALQDS T01720117
PFYU 222234Z 24010G17KT 10SM SCT022 BKN036 OVC070 17/12 A2981 RMK AO2 VIRGA ALQDS
PFYU 222156Z 24008G14KT 190V270 10SM OVC020 16/12 A2981 RMK AO2 SLP115 VIRGA ALQDS T01610117
PFYU 222056Z VRB05KT 10SM FEW035 OVC045 16/12 A2980 RMK AO2 SLP110 VIRGA ALQDS 60000 T01560122 51016
PFYU 222038Z VRB06G16KT 10SM FEW020 OVC035 15/12 A2979 RMK AO2 VIRGA ALQDS
PFYU 222025Z 26007G15KT 220V290 10SM FEW010 BKN026 OVC033 15/13 A2979 RMK AO2 VIRGA ALQDS
PFYU 221956Z 23006KT 10SM OVC010 14/13 A2979 RMK AO2 RAB07E47 CIG 008V013 SLP106 VIRGA ALQDS P0000 T01440128
PFYU 221856Z 22004KT 10SM OVC014 16/13 A2976 RMK AO2 SLP097 VIRGA ALQDS T01560128
PFYU 221841Z VRB05KT 10SM BKN014 OVC048 16/13 A2976 RMK AO2 VIRGA ALQDS
PFYU 221811Z VRB05KT 10SM FEW014 OVC048 16/13 A2975 RMK AO2
PFYU 221756Z 24007KT 10SM BKN016 BKN023 OVC044 16/13 A2975 RMK AO2 RAE30 SLP093 VIRGA ALQDS P0000 60000 T01560128 10161 20150 53011
PFYU 221737Z 22004KT 10SM SCT011 BKN018 OVC042 16/14 A2974 RMK AO2 RAE30 P0000
PFYU 221719Z VRB05KT 10SM -RA BKN011 BKN017 OVC047 16/14 A2974 RMK AO2 P0000
PFYU 221656Z 00000KT 10SM -RA SCT013 OVC047 16/14 A2974 RMK AO2 RAB51 SLP087 P0000 T01610144
PFYU 221617Z VRB03KT 10SM BKN013 OVC045 16/14 A2973 RMK AO2
PFYU 221556Z 00000KT 10SM OVC041 16/14 A2972 RMK AO2 SLP083 VIRGA ALQDS SH DSNT SW T01560139
PFYU 221456Z AUTO 00000KT 10SM OVC060 16/14 A2972 RMK AO2 SLP079 60000 T01610139 53013
PFYU 221356Z AUTO 00000KT 10SM OVC070 16/13 A2970 RMK AO2 RAE19 SLP073 P0000 T01560133
PFYU 221256Z AUTO 00000KT 10SM -RA OVC085 16/12 A2969 RMK AO2 RAB39 SLP071 P0000 T01560122
PFYU 221156Z AUTO 00000KT 10SM BKN100 16/12 A2968 RMK AO2 SLP066 T01560122 10222 20156 50004
PFYU 221056Z AUTO 00000KT 10SM CLR 18/13 A2968 RMK AO2 SLP068 T01780128
PFYU 220956Z AUTO VRB04KT 10SM CLR 19/13 A2966 RMK AO2 SLP059 T01890128
PFYU 220856Z AUTO VRB03KT 10SM CLR 19/12 A2966 RMK AO2 SLP061 T01890122 402890150 53014
PFYU 220756Z AUTO 17005KT 10SM BKN100 21/12 A2963 RMK AO2 SLP051 T02110122
PFYU 220656Z AUTO 27004KT 10SM CLR 22/13 A2962 RMK AO2 SLP046 T02170133
PFYU 220556Z AUTO 26005KT 10SM CLR 22/12 A2962 RMK AO2 SLP047 T02220122 10289 20222 56002
PFYU 220456Z AUTO VRB04KT 10SM SCT100 25/12 A2962 RMK AO2 SLP046 T02500122
PFYU 220356Z AUTO 02005KT 10SM CLR 27/11 A2961 RMK AO2 SLP043 T02670111
PFYU 220256Z 04007KT 10SM FEW080 SCT100 BKN120 28/09 A2963 RMK AO2 SLP049 T02780094 56013
PFYU 220156Z 05007KT 10SM FEW100 BKN120 28/09 A2963 RMK AO2 SLP051 T02830094
PFYU 220056Z 06007KT 040V100 10SM FEW100 SCT120 28/11 A2965 RMK AO2 SLP056 T02780106
PFYU 212356Z 06006KT 10SM SCT100 BKN120 28/10 A2967 RMK AO2 SLP062 T02830100 10283 20211 57018